FVBUFVHA

Guest
Details From FVBU - J M NKOMO INTL
To FVHA - HARARE INTL
Flight Number -
Tags generated
Created
Modified
Stats Distance 188 nm / 348 km
Max Altitude 19,300 ft / 5,883 m
Waypoints 3
Social Downloads 2
Likes 0
Share VATSIM

Download

Looking for another format? Having issues loading an existing format? Contact us
Advertisement - Login to hide

Notes

Basic altitude profile: - Ascent Rate: 2000ft/min - Ascent Speed: 250kts - Cruise Altitude: 28000ft - Cruise Speed: 295kts - Descent Rate: 2200ft/min - Descent Speed: 250kts Options: - Use NATs: yes - Use PACOTS: yes - Use low airways: yes - Use high airways: no

Route

FVBU RC FVHA

ID Type Via Altitude Latitude Longitude Leg Dist Tot Dist Heading (true) Name
O FVBU APT - 0 ft / 0 m -20.01521˚ 28.62271˚ - 0 nm - J M NKOMO INTL
RC NDB - 19,300 ft / 5,883 m -18.93524˚ 29.80466˚ 93 nm 93 nm 46° / 46° KWEKWE NDB
O FVHA APT - 0 ft / 0 m -17.93181˚ 31.09285˚ 94 nm 188 nm 51° / 50° HARARE INTL

Altitude Profile

Advertisement - Login to hide

Weather


0- 5 10 15 20 25 30 35+ Temperature / ° C

Clouds and Precipitation
Forecast for 2017-12-16 18:00 UTC. Updated 2 hours ago

Ground ~20,000 ft ~40,000 ft Winds

FVBU

Details ICAO FVBU (BUQ)
Name J M NKOMO INTL
Region Zimbabwe
Timezone Africa/Harare (UTC+2.0)
Stats Elevation 4,359 ft / 1,329 m (AMSL)
Location -20.015206° 28.622707°
Runways 2
Magnetic Variation 10.287° W

METAR

FVBU 161800Z 12007KT CAVOK 23/14 Q1021 NOSIG

Decode

TAF

TAF TAF FVBU 161600Z 1618/1724 08008KT CAVOK TEMPO 1708/1714 VRB03KT

Decode

Departure Runways

ID Width Length Bearing (true) Bearing (mag) Surface Threshold Offset Overrun Length
02 98 ft / 30 m 4,452 ft / 1,357 m 7.60° 17.89° Asphalt 0 ft / 0 m 0 ft / 0 m
13 148 ft / 45 m 8,523 ft / 2,598 m 115.40° 125.69° Asphalt 0 ft / 0 m 190 ft / 58 m
20 98 ft / 30 m 4,452 ft / 1,357 m 187.60° 197.89° Asphalt 0 ft / 0 m 0 ft / 0 m
31 148 ft / 45 m 8,523 ft / 2,598 m 295.39° 305.68° Asphalt 0 ft / 0 m 220 ft / 67 m

FVHA

Details ICAO FVHA (HRE)
Name HARARE INTL
Region Zimbabwe
Timezone Africa/Harare (UTC+2.0)
Stats Elevation 4,887 ft / 1,490 m (AMSL)
Location -17.931806° 31.092848°
Runways 1
Magnetic Variation 8.523° W

METAR

FVHA 161900Z 06009KT 9999 BKN040 20/16 Q1024 NOSIG

Decode

TAF

Not found

Destination Runways

ID Width Length Bearing (true) Bearing (mag) Surface Threshold Offset Overrun Length
05 151 ft / 46 m 15,517 ft / 4,730 m 44.85° 53.37° Asphalt 0 ft / 0 m 320 ft / 98 m
23 151 ft / 46 m 15,517 ft / 4,730 m 224.84° 233.36° Asphalt 3,630 ft / 1,106 m 295 ft / 90 m

Approach Navaids

Runway Type Ident Frequency Range Bearing (true) Bearing (mag) Slope Elevation
05 Localiser ISB 110.30 MHz 18 nm / 33 km 44.81° 53.34° - 4,887 ft / 1,490 m (AMSL)
05 Glidescope ISB 110.30 MHz 10 nm / 19 km 44.84° 53.37° 3.00° 4,887 ft / 1,490 m (AMSL)

Popular Alternatives